Terminal Aerodrome Forecast
Issued by NWS

Home | Current Version | Previous Version | Text Only | Print | Product List | Glossary On
Versions: 1 2 3 4 5 6 7 8 9 10 11 12 13 14 15 16 17 18 19 20
135
FTUS41 KPBZ 051722
TAFZZV
TAF
KZZV 051722Z 0518/0618 24005KT P6SM SCT023 BKN035
      TEMPO 0518/0520 BKN023
     FM060000 VRB03KT P6SM BKN250
     FM061200 09007KT 5SM -RA OVC040
     FM061500 10007KT 2SM -RA OVC015=

USA.gov is the U.S. government's official web portal to all federal, state and local government web resources and services.